Time;durP1;ratioP1;P1;durP2;ratioP2;P2;SDS_P1;SDS_P2;PMS_P1;PMS_P2;Temp;Humidity;BMP_temperature;BMP_pressure;BME280_temperature;BME280_humidity;BME280_pressure;Samples;Min_cycle;Max_cycle;Signal;HPM_P1;HPM_P2
2021/12/26 00:01:22;;;;;;;2.83;1.73;;;-5.10;99.90;;;;;;5095006;28;20084;-75
2021/12/26 00:03:48;;;;;;;;;;;-5.20;99.90;;;;;;5095565;28;20051;-76
2021/12/26 00:06:21;;;;;;;5.80;2.35;;;-5.20;99.90;;;;;;5095130;28;19920;-74
2021/12/26 00:08:49;;;;;;;5.50;2.38;;;-5.10;99.90;;;;;;5076857;28;20051;-75
2021/12/26 00:11:15;;;;;;;6.10;2.40;;;-5.10;99.90;;;;;;5094860;28;20048;-73
2021/12/26 00:13:42;;;;;;;5.70;2.33;;;-5.10;99.90;;;;;;5094785;28;20066;-74
2021/12/26 00:16:09;;;;;;;4.75;2.58;;;-5.10;99.90;;;;;;5094731;28;20051;-75
2021/12/26 00:18:35;;;;;;;4.38;2.28;;;-5.10;99.90;;;;;;5095124;28;20055;-73
2021/12/26 00:21:02;;;;;;;3.65;1.85;;;-3.20;99.90;;;;;;5095089;28;20141;-72
2021/12/26 00:23:28;;;;;;;2.47;1.90;;;-5.10;99.90;;;;;;5094897;28;20482;-76
2021/12/26 00:25:54;;;;;;;6.60;2.05;;;-5.20;99.90;;;;;;5094784;28;20087;-72
2021/12/26 00:28:20;;;;;;;6.45;2.40;;;-5.20;99.90;;;;;;5094552;28;20119;-75
2021/12/26 00:30:46;;;;;;;4.63;2.08;;;-5.10;99.90;;;;;;5094679;28;20048;-75
2021/12/26 00:33:13;;;;;;;5.65;2.30;;;-5.00;99.90;;;;;;5094966;28;20445;-76
2021/12/26 00:35:38;;;;;;;;;;;-5.10;99.90;;;;;;5095221;28;20456;-76
2021/12/26 00:38:04;;;;;;;2.95;1.65;;;-5.20;99.90;;;;;;5094597;28;19920;-73
2021/12/26 00:40:31;;;;;;;5.22;1.92;;;-5.10;99.90;;;;;;5094652;28;20071;-73
2021/12/26 00:42:57;;;;;;;3.38;1.60;;;-5.10;99.90;;;;;;5094456;28;20050;-73
2021/12/26 00:45:23;;;;;;;3.28;1.52;;;-3.00;99.90;;;;;;5094349;28;20044;-75
2021/12/26 00:47:49;;;;;;;2.67;1.92;;;-5.20;99.90;;;;;;5094525;28;20062;-72
2021/12/26 00:50:19;;;;;;;4.75;2.53;;;-5.30;99.90;;;;;;5094714;28;20498;-75
2021/12/26 00:52:45;;;;;;;3.55;1.75;;;-5.30;99.90;;;;;;5094370;28;20048;-75
2021/12/26 00:55:12;;;;;;;;;;;-5.20;99.90;;;;;;5076952;28;20059;-76
2021/12/26 00:57:39;;;;;;;3.55;2.08;;;-5.30;99.90;;;;;;5093983;28;19942;-74
2021/12/26 01:00:09;;;;;;;7.97;2.10;;;-5.30;99.90;;;;;;5076355;28;20048;-73
2021/12/26 01:02:35;;;;;;;4.72;2.35;;;-5.20;99.90;;;;;;5094318;28;20048;-72
2021/12/26 01:05:01;;;;;;;4.22;2.17;;;-5.20;99.90;;;;;;5076337;28;20059;-75
2021/12/26 01:07:42;;;;;;;4.57;2.15;;;-5.20;99.90;;;;;;5094107;28;20036;-73
2021/12/26 01:10:08;;;;;;;2.55;1.75;;;-5.40;99.90;;;;;;5094076;28;20122;-75
2021/12/26 01:12:35;;;;;;;3.45;1.67;;;-5.30;99.90;;;;;;5092893;28;20052;-73
2021/12/26 01:15:07;;;;;;;4.57;2.20;;;-5.50;99.90;;;;;;5093922;28;20054;-72
2021/12/26 01:17:34;;;;;;;4.22;1.83;;;-5.00;99.90;;;;;;5094052;28;20036;-72
2021/12/26 01:20:03;;;;;;;6.53;2.47;;;-5.50;99.90;;;;;;5075869;28;20131;-72
2021/12/26 01:22:28;;;;;;;3.63;1.92;;;-5.40;99.90;;;;;;5093893;28;20062;-75
2021/12/26 01:24:57;;;;;;;5.07;1.77;;;-5.30;99.90;;;;;;5093844;28;20048;-74
2021/12/26 01:27:25;;;;;;;5.20;2.17;;;-5.40;99.90;;;;;;5075535;28;20544;-74
2021/12/26 01:29:52;;;;;;;2.72;1.58;;;-5.40;99.90;;;;;;5093831;28;20040;-75
2021/12/26 01:32:19;;;;;;;4.80;1.52;;;-5.60;99.90;;;;;;5093766;28;20044;-73
2021/12/26 01:34:46;;;;;;;4.05;1.88;;;-5.50;99.90;;;;;;5093774;28;20044;-73
2021/12/26 01:37:12;;;;;;;3.60;1.80;;;-5.60;99.90;;;;;;5075726;28;20077;-73
2021/12/26 01:39:38;;;;;;;;;;;-5.50;99.90;;;;;;5093472;28;20093;-76
2021/12/26 01:42:04;;;;;;;7.30;2.05;;;-5.50;99.90;;;;;;5093518;28;20010;-75
2021/12/26 01:44:33;;;;;;;4.38;2.08;;;-5.40;99.90;;;;;;5075659;28;20044;-72
2021/12/26 01:46:59;;;;;;;4.43;1.73;;;-5.60;99.90;;;;;;5093490;28;20052;-76
2021/12/26 01:49:28;;;;;;;3.72;1.75;;;-5.50;99.90;;;;;;5093671;28;20058;-77
2021/12/26 01:51:56;;;;;;;3.17;1.77;;;-5.60;99.90;;;;;;5093515;28;20054;-73
2021/12/26 01:56:55;;;;;;;4.90;2.50;;;-4.10;99.90;;;;;;5093219;28;20051;-72
2021/12/26 01:59:21;;;;;;;5.38;2.25;;;-5.50;99.90;;;;;;5093499;28;20044;-74
2021/12/26 02:01:47;;;;;;;3.33;1.75;;;-5.70;99.90;;;;;;5075450;28;20434;-76
2021/12/26 02:04:13;;;;;;;4.72;2.55;;;-5.50;99.90;;;;;;5075599;28;20055;-74
2021/12/26 02:06:38;;;;;;;;;;;-3.70;99.90;;;;;;5093580;28;20040;-75
2021/12/26 02:09:04;;;;;;;3.67;2.08;;;-5.60;99.90;;;;;;5093118;28;19920;-74
2021/12/26 02:11:30;;;;;;;4.15;2.28;;;-5.40;99.90;;;;;;5093178;28;20380;-74
2021/12/26 02:13:56;;;;;;;7.85;2.55;;;-5.70;99.90;;;;;;5093400;28;20089;-73
2021/12/26 02:16:23;;;;;;;6.88;2.45;;;-5.50;99.90;;;;;;5093235;28;20053;-76
2021/12/26 02:18:49;;;;;;;2.53;1.65;;;-5.60;99.90;;;;;;5075163;28;20449;-73
2021/12/26 02:21:30;;;;;;;5.63;2.92;;;-5.80;99.90;;;;;;5093216;28;20052;-74
2021/12/26 02:24:13;;;;;;;4.25;2.33;;;-5.70;99.90;;;;;;5093050;28;20059;-73
2021/12/26 02:29:24;;;;;;;7.32;2.53;;;-5.70;99.90;;;;;;5093005;28;20131;-75
2021/12/26 02:31:50;;;;;;;6.25;2.75;;;-5.60;99.90;;;;;;5092990;28;20044;-72
2021/12/26 02:34:15;;;;;;;5.32;2.80;;;-5.70;99.90;;;;;;5074581;28;20055;-74
2021/12/26 02:36:41;;;;;;;5.88;2.08;;;-5.70;99.90;;;;;;5074659;28;20059;-73
2021/12/26 02:39:07;;;;;;;4.22;1.60;;;-6.00;99.90;;;;;;5093039;28;20174;-73
2021/12/26 02:41:33;;;;;;;7.35;2.22;;;-4.90;99.90;;;;;;5093091;28;20051;-74
2021/12/26 02:43:59;;;;;;;8.82;2.10;;;-5.20;99.90;;;;;;5093009;28;20036;-73
2021/12/26 02:46:26;;;;;;;5.45;2.40;;;-3.90;99.90;;;;;;5074967;28;20091;-74
2021/12/26 02:48:53;;;;;;;5.03;2.65;;;-5.70;99.90;;;;;;5074230;28;20451;-75
2021/12/26 02:51:18;;;;;;;5.65;2.30;;;-4.20;99.90;;;;;;5095543;28;20044;-75
2021/12/26 02:53:47;;;;;;;3.08;1.90;;;-4.50;99.90;;;;;;5078466;28;20134;-75
2021/12/26 02:56:13;;;;;;;3.63;2.38;;;-5.70;99.90;;;;;;5062001;28;20047;-75
2021/12/26 02:58:38;;;;;;;4.28;2.08;;;-3.80;99.90;;;;;;5096641;28;20123;-75
2021/12/26 03:01:14;;;;;;;3.80;1.92;;;-6.10;99.90;;;;;;5096654;28;20048;-73
2021/12/26 03:03:40;;;;;;;2.90;1.63;;;-5.70;99.90;;;;;;5061963;28;20048;-73
2021/12/26 03:06:16;;;;;;;4.70;2.22;;;-5.80;99.90;;;;;;5096348;28;20437;-75
2021/12/26 03:08:42;;;;;;;2.97;2.13;;;-7.10;99.90;;;;;;5096561;28;20083;-74
2021/12/26 03:11:08;;;;;;;6.20;1.85;;;-5.80;99.90;;;;;;5096458;28;20090;-75
2021/12/26 03:13:34;;;;;;;5.13;2.33;;;-5.80;99.90;;;;;;5061533;28;20052;-73
2021/12/26 03:15:59;;;;;;;4.97;2.15;;;-5.80;99.90;;;;;;5078204;28;20052;-72
2021/12/26 03:18:25;;;;;;;4.38;2.10;;;-5.80;99.90;;;;;;5096148;28;20498;-75
2021/12/26 03:20:52;;;;;;;3.95;2.10;;;-5.80;99.90;;;;;;5096161;28;20483;-74
2021/12/26 03:23:25;;;;;;;6.43;1.88;;;-5.80;99.90;;;;;;5078372;28;20059;-75
2021/12/26 03:25:54;;;;;;;6.53;1.70;;;-5.80;99.90;;;;;;5096127;28;20052;-74
2021/12/26 03:28:21;;;;;;;4.05;1.52;;;-5.90;99.90;;;;;;5096000;28;20101;-75
2021/12/26 03:30:46;;;;;;;3.50;1.38;;;-5.80;99.90;;;;;;5077141;28;20521;-76
2021/12/26 03:33:13;;;;;;;7.15;2.25;;;-5.80;99.90;;;;;;5095905;28;20044;-73
2021/12/26 03:35:40;;;;;;;3.25;2.17;;;-3.80;99.90;;;;;;5095726;28;20048;-74
2021/12/26 03:38:06;;;;;;;;;;;-5.80;99.90;;;;;;5096430;28;20124;-73
2021/12/26 03:40:32;;;;;;;2.95;1.65;;;-3.90;99.90;;;;;;5095009;28;19927;-76
2021/12/26 03:42:58;;;;;;;6.18;2.10;;;-5.80;99.90;;;;;;5077934;28;20048;-71
2021/12/26 03:45:24;;;;;;;5.18;2.72;;;-5.70;99.90;;;;;;5095742;28;20044;-76
2021/12/26 03:47:50;;;;;;;3.92;2.10;;;-5.70;99.90;;;;;;5077547;28;20040;-76
2021/12/26 03:50:19;;;;;;;5.22;1.80;;;-5.70;99.90;;;;;;5095481;28;20052;-75
2021/12/26 03:52:45;;;;;;;4.35;2.05;;;-5.70;99.90;;;;;;5077567;28;20047;-75
2021/12/26 03:55:11;;;;;;;4.43;2.10;;;-5.70;99.90;;;;;;5095570;28;20043;-74
2021/12/26 03:57:37;;;;;;;3.33;1.77;;;-4.20;99.90;;;;;;5095570;28;20380;-75
2021/12/26 04:00:07;;;;;;;4.28;1.95;;;-3.70;99.90;;;;;;5095481;28;20044;-73
2021/12/26 04:02:33;;;;;;;6.03;2.58;;;-5.60;99.90;;;;;;5060237;28;20048;-73
2021/12/26 04:04:59;;;;;;;4.97;2.15;;;-5.80;99.90;;;;;;5077063;28;20113;-72
2021/12/26 04:07:25;;;;;;;5.38;2.17;;;-5.90;99.90;;;;;;5094970;28;20402;-75
2021/12/26 04:09:51;;;;;;;6.53;1.90;;;-5.80;99.90;;;;;;5077548;28;20043;-75
2021/12/26 04:12:16;;;;;;;3.03;2.08;;;-5.90;99.90;;;;;;5077270;28;20119;-74
2021/12/26 04:14:42;;;;;;;7.43;2.20;;;-5.90;99.90;;;;;;5095237;28;20044;-72
2021/12/26 04:17:08;;;;;;;4.50;1.98;;;-5.90;99.90;;;;;;5060239;28;20181;-75
2021/12/26 04:19:34;;;;;;;3.00;1.63;;;-6.10;99.90;;;;;;5094975;28;20671;-75
2021/12/26 04:22:00;;;;;;;3.38;2.17;;;-5.90;99.90;;;;;;5094829;28;20514;-74
2021/12/26 04:24:25;;;;;;;4.00;1.75;;;-5.80;99.90;;;;;;5095176;28;20056;-74
2021/12/26 04:26:51;;;;;;;5.15;2.03;;;-5.90;99.90;;;;;;5094683;28;20056;-74
2021/12/26 04:29:17;;;;;;;3.67;1.98;;;-6.00;99.90;;;;;;5076695;28;20048;-73
2021/12/26 04:31:42;;;;;;;5.82;2.38;;;-6.00;99.90;;;;;;5094712;28;20132;-76
2021/12/26 04:34:08;;;;;;;4.05;2.53;;;-5.90;99.90;;;;;;5094764;28;20047;-73
2021/12/26 04:36:34;;;;;;;7.22;2.40;;;-5.90;99.90;;;;;;5094646;28;20050;-75
2021/12/26 04:38:59;;;;;;;4.70;2.28;;;-5.90;99.90;;;;;;5094843;28;20048;-76
2021/12/26 04:41:25;;;;;;;4.15;2.22;;;-6.10;99.90;;;;;;5094704;28;20044;-76
2021/12/26 04:43:51;;;;;;;4.15;2.17;;;-6.10;99.90;;;;;;5094692;28;20498;-74
2021/12/26 04:46:16;;;;;;;4.22;2.30;;;-6.10;99.90;;;;;;5094625;28;20044;-74
2021/12/26 04:48:44;;;;;;;4.05;1.98;;;-6.00;99.90;;;;;;5094296;28;20041;-72
2021/12/26 04:51:10;;;;;;;3.85;1.90;;;-6.10;99.90;;;;;;5076424;28;20132;-72
2021/12/26 04:53:36;;;;;;;;;;;-6.10;99.90;;;;;;5094917;28;20083;-74
2021/12/26 04:56:03;;;;;;;4.10;1.70;;;-4.40;99.90;;;;;;5094213;28;19925;-73
2021/12/26 04:58:29;;;;;;;5.90;2.85;;;-6.10;99.90;;;;;;5076297;28;20040;-76
2021/12/26 05:00:54;;;;;;;4.28;2.22;;;-6.10;99.90;;;;;;5094223;28;20050;-73
2021/12/26 05:03:21;;;;;;;4.20;2.22;;;-5.30;99.90;;;;;;5094213;28;20048;-73
2021/12/26 05:05:47;;;;;;;4.18;2.20;;;-6.10;99.90;;;;;;5076134;28;20138;-75
2021/12/26 05:08:12;;;;;;;2.75;2.40;;;-6.10;99.90;;;;;;5094166;28;20194;-75
2021/12/26 05:10:39;;;;;;;5.93;2.67;;;-6.20;99.90;;;;;;5076137;28;20052;-72
2021/12/26 05:13:06;;;;;;;3.35;2.00;;;-6.20;99.90;;;;;;5075891;28;20518;-73
2021/12/26 05:15:31;;;;;;;5.70;2.42;;;-6.30;99.90;;;;;;5093600;28;20071;-75
2021/12/26 05:17:58;;;;;;;6.75;2.40;;;-6.30;99.90;;;;;;5093915;28;20487;-74
2021/12/26 05:20:26;;;;;;;7.80;3.33;;;-6.20;99.90;;;;;;5093849;28;20043;-73
2021/12/26 05:22:53;;;;;;;4.45;2.75;;;-6.20;99.90;;;;;;5093682;28;20069;-74
2021/12/26 05:25:20;;;;;;;3.42;2.08;;;-6.20;99.90;;;;;;5093826;28;20051;-76
2021/12/26 05:27:46;;;;;;;4.03;2.78;;;-6.10;99.90;;;;;;5075365;28;20574;-74
2021/12/26 05:30:15;;;;;;;3.97;2.17;;;-6.20;99.90;;;;;;5093778;28;20119;-72
2021/12/26 05:32:42;;;;;;;4.47;2.38;;;-6.20;99.90;;;;;;5093682;28;20044;-76
2021/12/26 05:35:09;;;;;;;4.43;2.80;;;-4.20;99.90;;;;;;5093658;28;20426;-73
2021/12/26 05:37:35;;;;;;;5.75;2.20;;;-7.20;99.90;;;;;;5093735;28;20476;-74
2021/12/26 05:40:03;;;;;;;2.90;2.25;;;-6.10;99.90;;;;;;5093712;28;20040;-72
2021/12/26 05:42:30;;;;;;;4.05;2.17;;;-5.10;99.90;;;;;;5075654;28;20099;-74
2021/12/26 05:44:56;;;;;;;4.38;2.35;;;-6.30;99.90;;;;;;5093521;28;20056;-74
2021/12/26 05:47:21;;;;;;;5.20;2.47;;;-6.20;99.90;;;;;;5093429;28;20098;-73
2021/12/26 05:49:47;;;;;;;5.40;2.78;;;-6.20;99.90;;;;;;5075604;28;20047;-73
2021/12/26 05:52:13;;;;;;;6.90;2.70;;;-6.20;99.90;;;;;;5093675;28;20127;-76
2021/12/26 05:54:39;;;;;;;2.42;1.92;;;-6.20;99.90;;;;;;5093496;28;20047;-74
2021/12/26 05:57:05;;;;;;;5.55;2.35;;;-6.20;99.90;;;;;;5075548;28;20048;-73
2021/12/26 05:59:31;;;;;;;6.05;2.78;;;-6.00;99.90;;;;;;5074827;28;20079;-74
2021/12/26 06:01:57;;;;;;;5.20;2.95;;;-6.10;99.90;;;;;;5093377;28;20040;-72
2021/12/26 06:04:24;;;;;;;4.00;2.53;;;-6.10;99.90;;;;;;5093442;28;20051;-75
2021/12/26 06:06:50;;;;;;;5.35;2.25;;;-6.10;99.90;;;;;;5093130;28;20044;-75
2021/12/26 06:09:16;;;;;;;;;;;-6.20;99.90;;;;;;5093780;28;20386;-74
2021/12/26 06:11:41;;;;;;;5.05;2.70;;;-6.50;99.90;;;;;;5075620;28;19920;-76
2021/12/26 06:14:07;;;;;;;4.13;2.45;;;-6.20;99.90;;;;;;5093241;28;20048;-72
2021/12/26 06:16:33;;;;;;;3.92;2.50;;;-6.20;99.90;;;;;;5075156;28;20044;-73
2021/12/26 06:18:58;;;;;;;4.30;2.78;;;-6.10;99.90;;;;;;5093124;28;20072;-74
2021/12/26 06:21:24;;;;;;;5.30;2.40;;;-6.10;99.90;;;;;;5075309;28;20048;-74
2021/12/26 06:23:53;;;;;;;6.40;2.17;;;-6.30;99.90;;;;;;5093253;28;20046;-74
2021/12/26 06:26:20;;;;;;;3.35;2.15;;;-6.20;99.90;;;;;;5095920;28;20101;-74
2021/12/26 06:28:47;;;;;;;3.65;2.25;;;-6.10;99.90;;;;;;5079054;28;20067;-73
2021/12/26 06:31:13;;;;;;;4.25;2.33;;;-6.00;99.90;;;;;;5097136;28;20127;-75
2021/12/26 06:33:39;;;;;;;5.45;3.25;;;-6.00;99.90;;;;;;5097004;28;20055;-74
2021/12/26 06:36:07;;;;;;;3.42;1.88;;;-6.00;99.90;;;;;;5078866;28;20043;-73
2021/12/26 06:38:34;;;;;;;6.10;2.80;;;-6.10;99.90;;;;;;5097253;28;20126;-72
2021/12/26 06:41:01;;;;;;;6.70;2.88;;;-6.20;99.90;;;;;;5079256;28;20458;-75
2021/12/26 06:43:27;;;;;;;6.10;2.60;;;-6.10;99.90;;;;;;5097209;28;20052;-75
2021/12/26 06:45:54;;;;;;;4.93;2.90;;;-6.10;99.90;;;;;;5078828;28;20055;-76
2021/12/26 06:48:20;;;;;;;;;;;-6.10;99.90;;;;;;5079214;28;20048;-73
2021/12/26 06:50:46;;;;;;;4.47;2.70;;;-6.30;99.90;;;;;;5095627;28;19923;-72
2021/12/26 06:53:12;;;;;;;4.22;2.50;;;-6.00;99.90;;;;;;5096560;28;20048;-74
2021/12/26 06:55:38;;;;;;;5.20;3.03;;;-6.10;99.90;;;;;;5077855;28;20060;-72
2021/12/26 06:58:04;;;;;;;4.28;2.42;;;-6.20;99.90;;;;;;5096808;28;20402;-72
2021/12/26 07:00:30;;;;;;;3.63;2.40;;;-6.10;99.90;;;;;;5096675;28;20046;-77
2021/12/26 07:02:56;;;;;;;5.32;2.75;;;-6.10;99.90;;;;;;5078719;28;20055;-75
2021/12/26 07:05:22;;;;;;;5.28;3.10;;;-6.10;99.90;;;;;;5096445;28;20044;-74
2021/12/26 07:07:48;;;;;;;5.32;2.88;;;-6.00;99.90;;;;;;5095198;28;20066;-74
2021/12/26 07:10:14;;;;;;;6.15;3.00;;;-6.10;99.90;;;;;;5096556;28;20055;-74
2021/12/26 07:12:40;;;;;;;;;;;-6.00;99.90;;;;;;5096895;28;20040;-73
2021/12/26 07:15:07;;;;;;;5.82;3.17;;;-5.90;99.90;;;;;;5078394;28;20374;-73
2021/12/26 07:17:32;;;;;;;;;;;-5.90;99.90;;;;;;5078626;28;20503;-73
2021/12/26 07:19:58;;;;;;;6.50;3.28;;;-5.90;99.90;;;;;;5096121;28;19967;-75
2021/12/26 07:22:24;;;;;;;6.07;3.70;;;-6.00;99.90;;;;;;5096050;28;20126;-73
2021/12/26 07:24:49;;;;;;;4.65;2.75;;;-6.10;99.90;;;;;;5078335;28;20044;-74
2021/12/26 07:27:16;;;;;;;3.88;2.53;;;-5.80;99.90;;;;;;5096006;28;20067;-73
2021/12/26 07:29:42;;;;;;;3.83;2.85;;;-6.00;99.90;;;;;;5096032;28;20059;-76
2021/12/26 07:32:09;;;;;;;;;;;-6.00;99.90;;;;;;5078453;28;20048;-73
2021/12/26 07:34:34;;;;;;;6.68;3.38;;;-5.80;99.90;;;;;;5078026;28;20069;-76
2021/12/26 07:37:01;;;;;;;7.63;3.67;;;-6.00;99.90;;;;;;5094730;28;20122;-74
2021/12/26 07:39:27;;;;;;;5.40;3.53;;;-6.10;99.90;;;;;;5095999;28;20395;-72
2021/12/26 07:41:52;;;;;;;7.80;4.00;;;-6.00;99.90;;;;;;5095969;28;20046;-73
2021/12/26 07:44:18;;;;;;;6.45;3.78;;;-4.00;99.90;;;;;;5095685;28;20051;-72
2021/12/26 07:46:44;;;;;;;5.35;3.47;;;-5.90;99.90;;;;;;5095890;28;20044;-73
2021/12/26 07:49:10;;;;;;;6.22;3.20;;;-6.10;99.90;;;;;;5076294;28;20051;-72
2021/12/26 07:51:36;;;;;;;9.18;3.80;;;-6.00;99.90;;;;;;5095489;28;20051;-75
2021/12/26 07:54:01;;;;;;;6.57;4.15;;;-6.00;99.90;;;;;;5095227;28;20044;-72
2021/12/26 07:56:28;;;;;;;4.43;3.38;;;-6.30;99.90;;;;;;5077327;28;20131;-74
2021/12/26 07:58:54;;;;;;;5.65;3.00;;;-6.00;99.90;;;;;;5095507;28;20043;-74
2021/12/26 08:01:20;;;;;;;5.72;3.53;;;-5.90;99.90;;;;;;5077618;28;20107;-75
2021/12/26 08:03:46;;;;;;;8.20;3.20;;;-5.90;99.90;;;;;;5077578;28;20124;-72
2021/12/26 08:06:18;;;;;;;4.47;3.30;;;-5.90;99.90;;;;;;5095075;28;20048;-75
2021/12/26 08:08:45;;;;;;;5.15;3.13;;;-5.80;99.90;;;;;;5095305;28;20054;-72
2021/12/26 08:11:11;;;;;;;5.65;3.33;;;-3.50;99.90;;;;;;5093892;28;20040;-74
2021/12/26 08:13:37;;;;;;;4.95;3.35;;;-5.70;99.90;;;;;;5077434;28;20127;-74
2021/12/26 08:16:03;;;;;;;5.32;3.83;;;-5.60;99.90;;;;;;5095185;28;20046;-74
2021/12/26 08:18:29;;;;;;;7.40;3.40;;;-5.50;99.90;;;;;;5076812;28;20048;-72
2021/12/26 08:20:55;;;;;;;5.85;3.50;;;-5.70;99.90;;;;;;5094982;28;20044;-75
2021/12/26 08:23:20;;;;;;;7.80;3.75;;;-5.50;99.90;;;;;;5094851;28;20047;-74
2021/12/26 08:25:46;;;;;;;4.93;3.03;;;-5.50;99.90;;;;;;5095042;28;20476;-74
2021/12/26 08:28:14;;;;;;;6.65;2.90;;;-5.50;99.90;;;;;;5076465;28;20087;-74
2021/12/26 08:30:41;;;;;;;4.68;2.88;;;-3.50;99.90;;;;;;5077006;28;20123;-74
2021/12/26 08:33:07;;;;;;;4.35;2.85;;;-5.50;99.90;;;;;;5076670;28;20118;-75
2021/12/26 08:35:34;;;;;;;7.05;3.13;;;-5.30;99.90;;;;;;5076831;28;20040;-73
2021/12/26 08:38:05;;;;;;;7.60;2.67;;;-5.40;99.90;;;;;;5094671;28;20391;-73
2021/12/26 08:40:31;;;;;;;5.45;3.05;;;-5.40;99.90;;;;;;5094764;28;20036;-75
2021/12/26 08:42:57;;;;;;;3.58;2.22;;;-5.50;99.90;;;;;;5076655;28;20094;-72
2021/12/26 08:45:23;;;;;;;4.43;2.80;;;-3.70;99.90;;;;;;5094676;28;20043;-75
2021/12/26 08:47:49;;;;;;;4.35;2.50;;;-5.40;99.90;;;;;;5094311;28;20168;-75
2021/12/26 08:50:15;;;;;;;4.57;3.20;;;-5.30;99.90;;;;;;5076515;28;20075;-75
2021/12/26 08:52:42;;;;;;;5.10;2.45;;;-5.20;99.90;;;;;;5094311;28;20051;-73
2021/12/26 08:55:09;;;;;;;5.38;3.05;;;-5.10;99.90;;;;;;5094316;28;20040;-74
2021/12/26 08:57:35;;;;;;;4.97;2.70;;;-3.60;99.90;;;;;;5094419;28;20445;-73
2021/12/26 09:00:01;;;;;;;5.40;3.08;;;-5.20;99.90;;;;;;5076274;28;20051;-73
2021/12/26 09:02:27;;;;;;;3.58;2.53;;;-3.00;99.90;;;;;;5094287;28;20051;-72
2021/12/26 09:04:53;;;;;;;6.47;3.28;;;-5.10;99.90;;;;;;5094305;28;20044;-76
2021/12/26 09:07:19;;;;;;;4.82;3.05;;;-5.10;99.90;;;;;;5094002;28;20123;-75
2021/12/26 09:09:48;;;;;;;5.60;2.45;;;-5.00;99.90;;;;;;5094281;28;20105;-74
2021/12/26 09:12:14;;;;;;;5.25;3.15;;;-5.00;99.90;;;;;;5076287;28;20044;-74
2021/12/26 09:14:39;;;;;;;4.50;2.45;;;-5.10;99.90;;;;;;5076257;28;20464;-75
2021/12/26 09:17:07;;;;;;;6.53;2.97;;;-4.80;99.90;;;;;;5094017;28;20114;-73
2021/12/26 09:19:34;;;;;;;3.88;2.47;;;-4.90;99.90;;;;;;5093739;28;20055;-75
2021/12/26 09:22:05;;;;;;;5.50;3.15;;;-4.80;99.90;;;;;;5093750;28;20101;-73
2021/12/26 09:24:31;;;;;;;5.07;3.05;;;-4.80;99.90;;;;;;5093880;28;20044;-75
2021/12/26 09:26:57;;;;;;;8.02;3.15;;;-4.70;99.90;;;;;;5093703;28;20117;-76
2021/12/26 09:29:23;;;;;;;4.85;3.53;;;-4.70;99.90;;;;;;5075664;28;20048;-73
2021/12/26 09:31:50;;;;;;;6.35;2.80;;;-4.80;99.90;;;;;;5093935;28;20055;-75
2021/12/26 09:34:16;;;;;;;5.82;3.25;;;-5.10;99.90;;;;;;5093642;28;20118;-74
2021/12/26 09:36:43;;;;;;;4.82;2.78;;;-4.90;99.90;;;;;;5093392;28;20040;-74
2021/12/26 09:39:10;;;;;;;6.70;3.03;;;-4.80;99.90;;;;;;5093672;28;20055;-74
2021/12/26 09:41:37;;;;;;;3.92;2.55;;;-4.60;99.90;;;;;;5093654;28;20083;-75
2021/12/26 09:44:03;;;;;;;3.97;2.80;;;-4.50;99.90;;;;;;5093646;28;20048;-74
2021/12/26 09:46:31;;;;;;;5.75;2.55;;;-4.00;99.90;;;;;;5093521;28;20144;-75
2021/12/26 09:48:57;;;;;;;5.30;2.97;;;-4.70;99.90;;;;;;5058514;28;20051;-75
2021/12/26 09:51:23;;;;;;;5.13;3.58;;;-4.60;99.90;;;;;;5093267;28;20046;-74
2021/12/26 09:53:49;;;;;;;5.90;3.67;;;-4.60;99.90;;;;;;5075441;28;20055;-73
2021/12/26 09:56:14;;;;;;;5.10;3.15;;;-4.30;99.90;;;;;;5093718;28;20052;-75
2021/12/26 09:59:06;;;;;;;4.72;3.17;;;-4.40;99.90;;;;;;5093546;28;20380;-74
2021/12/26 10:01:36;;;;;;;4.93;3.55;;;-4.30;99.90;;;;;;5075022;28;20052;-75
2021/12/26 10:04:21;;;;;;;5.38;3.72;;;-3.20;99.90;;;;;;5093248;28;20046;-75
2021/12/26 10:06:56;;;;;;;6.57;3.38;;;-4.20;99.90;;;;;;5093024;28;20556;-74
2021/12/26 10:09:23;;;;;;;5.82;3.00;;;-4.10;99.90;;;;;;5075099;28;20048;-73
2021/12/26 10:11:54;;;;;;;4.95;3.03;;;-4.10;99.90;;;;;;5093257;28;20075;-74
2021/12/26 10:14:29;;;;;;;4.90;3.40;;;-4.20;99.90;;;;;;5093061;28;20040;-75
2021/12/26 10:17:04;;;;;;;5.32;3.20;;;-4.20;99.90;;;;;;5093086;28;20521;-74
2021/12/26 10:19:34;;;;;;;4.32;3.35;;;-3.90;99.90;;;;;;5075170;28;20523;-73
2021/12/26 10:22:01;;;;;;;5.68;3.55;;;-4.30;99.90;;;;;;5093161;28;20036;-72
2021/12/26 10:24:33;;;;;;;8.20;4.00;;;-3.80;99.90;;;;;;5093145;28;20102;-72
2021/12/26 10:27:04;;;;;;;5.85;2.92;;;-2.30;99.90;;;;;;5092809;28;20560;-73
2021/12/26 10:29:33;;;;;;;6.57;3.28;;;-3.80;99.90;;;;;;5093207;28;20093;-75
2021/12/26 10:32:04;;;;;;;5.10;3.15;;;-3.70;99.90;;;;;;5093088;28;20396;-72
2021/12/26 10:34:45;;;;;;;5.90;3.47;;;-3.60;99.90;;;;;;5075356;28;20052;-74
2021/12/26 10:37:19;;;;;;;6.00;3.10;;;-3.50;99.90;;;;;;5093124;28;20169;-72
2021/12/26 10:39:51;;;;;;;6.00;3.67;;;-3.50;99.90;;;;;;5092868;28;20550;-74
2021/12/26 10:42:26;;;;;;;5.90;3.17;;;-3.60;99.90;;;;;;5075279;28;20109;-74
2021/12/26 10:44:54;;;;;;;4.45;3.17;;;-3.40;99.90;;;;;;5093020;28;20051;-75
2021/12/26 10:47:23;;;;;;;6.30;3.20;;;-2.30;99.90;;;;;;5092874;28;20086;-74
2021/12/26 10:50:03;;;;;;;3.70;2.70;;;-3.20;99.90;;;;;;5092715;28;20097;-75
2021/12/26 10:52:34;;;;;;;4.50;2.97;;;-3.20;99.90;;;;;;5092825;28;20055;-74
2021/12/26 10:55:11;;;;;;;6.43;3.17;;;-3.10;99.90;;;;;;5092871;28;20150;-75
2021/12/26 10:57:46;;;;;;;4.63;2.70;;;-3.10;99.90;;;;;;5075123;28;20074;-73
2021/12/26 11:00:28;;;;;;;5.45;2.92;;;-3.00;99.90;;;;;;5092794;28;20070;-74
2021/12/26 11:03:05;;;;;;;4.75;2.67;;;-2.90;99.90;;;;;;5074507;28;20109;-75
2021/12/26 11:05:43;;;;;;;4.95;3.38;;;-2.90;99.90;;;;;;5092599;28;20419;-76
2021/12/26 11:08:46;;;;;;;6.60;4.00;;;-2.90;99.90;;;;;;5092618;28;20122;-72
2021/12/26 11:11:20;;;;;;;4.93;2.70;;;-2.80;99.90;;;;;;5010514;28;20061;-73
2021/12/26 11:13:46;;;;;;;4.80;2.63;;;-1.90;99.90;;;;;;5009040;28;20164;-75
2021/12/26 11:16:13;;;;;;;;;;;-2.70;99.90;;;;;;5014535;28;20057;-77
2021/12/26 11:18:38;;;;;;;4.43;2.65;;;-1.40;99.90;;;;;;4999837;28;20364;-74
2021/12/26 11:21:09;;;;;;;4.30;3.03;;;-2.60;99.90;;;;;;4994472;28;20086;-73
2021/12/26 11:23:40;;;;;;;7.10;3.50;;;-2.60;99.90;;;;;;4994336;28;20517;-72
2021/12/26 11:26:15;;;;;;;3.28;2.40;;;-2.60;99.90;;;;;;4992690;28;20054;-72
2021/12/26 11:28:52;;;;;;;7.85;3.28;;;-1.90;99.90;;;;;;4993888;28;20055;-76
2021/12/26 11:31:19;;;;;;;;;;;-2.40;99.90;;;;;;4994592;28;20082;-73
2021/12/26 11:33:49;;;;;;;4.20;2.35;;;-2.10;99.90;;;;;;4994149;28;20316;-75
2021/12/26 11:36:15;;;;;;;4.75;2.75;;;-2.20;99.90;;;;;;4993986;28;20057;-74
2021/12/26 11:38:41;;;;;;;6.82;3.67;;;-1.20;99.90;;;;;;4993629;28;20087;-75
2021/12/26 11:41:16;;;;;;;3.97;2.45;;;-2.10;99.90;;;;;;4993827;28;20054;-72
2021/12/26 11:44:19;;;;;;;4.85;3.40;;;-2.10;99.90;;;;;;4993907;28;20054;-74
2021/12/26 11:47:05;;;;;;;3.03;1.95;;;-2.00;99.90;;;;;;4977567;28;20057;-76
2021/12/26 11:50:00;;;;;;;5.85;2.63;;;-2.00;99.90;;;;;;5055264;28;20059;-72
2021/12/26 11:53:04;;;;;;;5.60;2.85;;;-1.90;99.90;;;;;;5055218;28;20123;-74
2021/12/26 11:56:05;;;;;;;3.10;2.50;;;-1.80;99.90;;;;;;5051003;28;20057;-73
2021/12/26 11:58:48;;;;;;;3.80;2.35;;;-1.80;99.90;;;;;;5013095;28;20054;-73
2021/12/26 12:01:17;;;;;;;3.63;2.83;;;-1.60;99.90;;;;;;5012999;28;20394;-73
2021/12/26 12:03:43;;;;;;;3.85;2.22;;;-1.70;99.90;;;;;;4996899;28;20067;-76
2021/12/26 12:06:23;;;;;;;4.85;2.67;;;0.10;99.90;;;;;;5013128;28;20128;-73
2021/12/26 12:08:49;;;;;;;4.90;2.58;;;-1.60;99.90;;;;;;5012726;28;20100;-75
2021/12/26 12:11:14;;;;;;;4.60;2.50;;;-1.60;99.90;;;;;;5012990;28;20624;-73
2021/12/26 12:13:49;;;;;;;4.38;2.53;;;-0.70;99.90;;;;;;4996645;28;20129;-73
2021/12/26 12:16:23;;;;;;;4.15;2.25;;;-1.50;99.90;;;;;;5012646;28;20117;-74
2021/12/26 12:18:49;;;;;;;4.35;2.53;;;-1.30;99.90;;;;;;5029161;28;20462;-76
2021/12/26 12:21:30;;;;;;;4.68;1.83;;;-1.30;99.90;;;;;;5012704;28;20144;-75
2021/12/26 12:24:05;;;;;;;4.55;2.75;;;-1.20;99.90;;;;;;4995791;28;20108;-74
2021/12/26 12:26:54;;;;;;;6.60;2.33;;;-1.20;99.90;;;;;;4996369;28;20149;-72
2021/12/26 12:29:28;;;;;;;3.55;2.25;;;-1.10;99.90;;;;;;5012584;28;20057;-76
2021/12/26 12:32:06;;;;;;;5.15;2.95;;;1.00;99.90;;;;;;5028841;28;20057;-75
2021/12/26 12:35:05;;;;;;;4.45;2.65;;;-1.00;99.90;;;;;;5040729;28;20474;-74
2021/12/26 12:37:33;;;;;;;4.43;2.33;;;-1.00;96.90;;;;;;5012262;28;20093;-74
2021/12/26 12:40:12;;;;;;;5.20;3.13;;;0.50;99.90;;;;;;5012212;28;20058;-75
2021/12/26 12:42:41;;;;;;;3.85;2.63;;;-0.90;99.90;;;;;;5012380;28;20053;-74
2021/12/26 12:45:08;;;;;;;4.55;2.28;;;-0.90;99.90;;;;;;5012367;28;20056;-73
2021/12/26 12:47:33;;;;;;;6.00;2.38;;;-0.90;99.90;;;;;;4996077;28;20505;-73
2021/12/26 12:50:03;;;;;;;5.00;2.15;;;-0.80;99.90;;;;;;5012112;28;20107;-73
2021/12/26 12:52:37;;;;;;;5.65;2.38;;;-0.80;99.90;;;;;;5012169;28;20428;-73
2021/12/26 12:55:09;;;;;;;5.25;2.50;;;1.00;99.90;;;;;;4995632;28;20527;-76
2021/12/26 12:57:42;;;;;;;12.77;2.40;;;-0.80;99.90;;;;;;5011843;28;20129;-75
2021/12/26 13:00:26;;;;;;;7.00;2.33;;;-0.80;97.90;;;;;;5010603;28;20061;-75
2021/12/26 13:02:54;;;;;;;3.88;2.22;;;-0.90;97.90;;;;;;5011808;28;20056;-73